Time;durP1;ratioP1;P1;durP2;ratioP2;P2;SDS_P1;SDS_P2;PMS_P1;PMS_P2;Temp;Humidity;BMP_temperature;BMP_pressure;BME280_temperature;BME280_humidity;BME280_pressure;Samples;Min_cycle;Max_cycle;Signal;HPM_P1;HPM_P2
2023/04/24 00:02:21;;;;;;;1.83;0.80;;;;;;;-148.88;100.00;74778.00;5013989;28;20029;-87
2023/04/24 00:04:48;;;;;;;2.15;1.05;;;;;;;-148.88;100.00;74796.28;5013311;28;20456;-86
2023/04/24 00:07:14;;;;;;;0.95;0.73;;;;;;;-148.88;100.00;74796.28;5013490;28;20030;-86
2023/04/24 00:09:39;;;;;;;1.02;0.70;;;;;;;-148.88;100.00;74794.25;5014636;28;20030;-86
2023/04/24 00:12:04;;;;;;;1.05;0.80;;;;;;;-148.88;100.00;74804.41;5013551;28;20038;-87
2023/04/24 00:14:34;;;;;;;1.98;1.08;;;;;;;-148.88;99.45;74806.44;5014197;28;20026;-86
2023/04/24 00:16:59;;;;;;;1.60;0.80;;;;;;;-148.88;99.91;74806.44;5031091;28;20029;-87
2023/04/24 00:19:25;;;;;;;0.82;0.60;;;;;;;-148.88;99.85;74812.53;5012137;28;20018;-86
2023/04/24 00:21:50;;;;;;;1.67;0.82;;;;;;;-148.88;100.00;74810.50;5013610;28;20022;-86
2023/04/24 00:24:17;;;;;;;2.17;0.65;;;;;;;-148.88;99.37;74822.66;5013407;28;20026;-86
2023/04/24 00:26:42;;;;;;;1.13;0.50;;;;;;;-148.88;97.48;74814.53;5012330;28;20510;-86
2023/04/24 00:29:07;;;;;;;1.52;0.80;;;;;;;-148.88;96.84;74804.41;5019368;28;20120;-88
2023/04/24 00:31:34;;;;;;;2.17;0.63;;;;;;;-148.88;98.26;74820.63;5015266;28;20477;-88
2023/04/24 00:34:00;;;;;;;0.68;0.50;;;;;;;-148.88;97.08;74812.53;5029990;28;20558;-86
2023/04/24 00:36:26;;;;;;;1.13;0.50;;;;;;;-148.88;96.77;74810.50;5011725;28;20030;-87
2023/04/24 00:38:52;;;;;;;1.30;0.63;;;;;;;-148.88;97.46;74818.59;5013542;28;20022;-87
2023/04/24 00:41:17;;;;;;;0.65;0.50;;;;;;;-148.88;96.79;74826.72;5012089;28;20048;-84
2023/04/24 00:43:43;;;;;;;1.38;0.70;;;;;;;-148.88;96.60;74824.69;5013051;28;20022;-88
2023/04/24 00:46:08;;;;;;;2.03;0.75;;;;;;;-148.88;95.74;74806.44;5011444;28;20037;-87
2023/04/24 00:48:34;;;;;;;2.40;0.60;;;;;;;-148.88;96.75;74812.53;5011683;28;20041;-88
2023/04/24 00:51:00;;;;;;;1.15;0.60;;;;;;;-148.88;98.77;74808.47;5012794;28;20053;-87
2023/04/24 00:53:25;;;;;;;0.80;0.50;;;;;;;-148.88;99.06;74818.59;5016334;28;20060;-87
2023/04/24 00:55:51;;;;;;;0.88;0.60;;;;;;;-148.88;97.44;74818.59;5012320;28;20444;-87
2023/04/24 00:58:16;;;;;;;3.67;0.70;;;;;;;-148.88;98.41;74826.72;5011423;28;20028;-87
2023/04/24 01:00:41;;;;;;;1.52;0.60;;;;;;;-148.88;98.62;74824.69;5011467;28;20021;-87
2023/04/24 01:03:07;;;;;;;1.08;0.65;;;;;;;-148.88;99.68;74826.72;5012537;28;20058;-87
2023/04/24 01:05:34;;;;;;;0.47;0.30;;;;;;;-148.88;98.53;74824.69;5012336;28;20096;-88
2023/04/24 01:07:59;;;;;;;1.58;0.70;;;;;;;-148.88;99.46;74826.72;5012527;28;20539;-88
2023/04/24 01:10:27;;;;;;;0.80;0.52;;;;;;;-148.88;99.42;74830.78;5012564;28;20034;-87
2023/04/24 01:12:52;;;;;;;2.28;0.70;;;;;;;-148.88;98.44;74822.66;5012465;28;20022;-86
2023/04/24 01:15:18;;;;;;;2.75;0.90;;;;;;;-148.88;98.79;74820.63;5027319;28;20435;-88
2023/04/24 01:17:43;;;;;;;1.52;0.80;;;;;;;-148.88;97.69;74818.59;5012317;28;20504;-87
2023/04/24 01:20:09;;;;;;;2.22;0.80;;;;;;;-148.88;98.28;74814.53;5027598;28;20476;-86
2023/04/24 01:22:34;;;;;;;1.45;0.82;;;;;;;-148.88;99.28;74822.66;5012175;28;20022;-86
2023/04/24 01:25:00;;;;;;;1.42;0.80;;;;;;;-148.88;97.49;74824.69;5011287;28;20034;-87
2023/04/24 01:27:25;;;;;;;1.98;0.85;;;;;;;-148.88;96.85;74810.50;5027833;28;20056;-87
2023/04/24 01:29:51;;;;;;;1.67;0.82;;;;;;;-148.88;98.25;74822.66;5014375;28;20055;-87
2023/04/24 01:32:18;;;;;;;1.80;0.80;;;;;;;-148.88;98.81;74818.59;5015554;28;20021;-87
2023/04/24 01:34:43;;;;;;;1.77;0.80;;;;;;;-148.88;98.92;74820.63;5014181;28;20018;-87
2023/04/24 01:37:09;;;;;;;1.67;0.77;;;;;;;-148.88;97.27;74816.56;5015533;28;20368;-86
2023/04/24 01:39:34;;;;;;;1.67;0.93;;;;;;;-148.88;97.80;74816.56;5014466;28;20554;-86
2023/04/24 01:42:01;;;;;;;1.52;0.75;;;;;;;-148.88;98.58;74822.66;5015368;28;20049;-86
2023/04/24 01:44:27;;;;;;;1.33;0.70;;;;;;;-148.88;97.86;74826.72;5015793;28;20018;-86
2023/04/24 01:46:53;;;;;;;3.55;0.75;;;;;;;-148.88;98.37;74816.56;5015355;28;20096;-87
2023/04/24 01:49:19;;;;;;;2.88;0.80;;;;;;;-148.88;98.23;74816.56;5015167;28;20431;-86
2023/04/24 01:51:45;;;;;;;2.10;0.90;;;;;;;-148.88;98.55;74814.53;5015438;28;20021;-88
2023/04/24 01:54:10;;;;;;;1.63;0.73;;;;;;;-148.88;99.31;74818.59;5014047;28;20025;-87
2023/04/24 01:56:38;;;;;;;2.42;0.90;;;;;;;-148.88;99.52;74828.75;5015320;28;20034;-86
2023/04/24 01:59:04;;;;;;;2.40;0.85;;;;;;;-148.88;99.02;74826.72;5015078;28;20505;-87
2023/04/24 02:01:36;;;;;;;0.85;0.55;;;;;;;-148.88;99.30;74826.72;5031354;28;20034;-87
2023/04/24 02:04:01;;;;;;;1.75;1.00;;;;;;;-148.88;98.96;74818.59;5015131;28;20033;-87
2023/04/24 02:06:26;;;;;;;1.38;0.90;;;;;;;-148.88;99.74;74814.53;5030366;28;20030;-87
2023/04/24 02:08:52;;;;;;;1.70;0.90;;;;;;;-148.88;99.59;74826.72;5013969;28;20028;-85
2023/04/24 02:11:17;;;;;;;1.55;1.00;;;;;;;-148.88;99.96;74828.75;5013728;28;20021;-86
2023/04/24 02:13:42;;;;;;;2.97;1.23;;;;;;;-148.88;98.63;74834.84;5030386;28;20022;-84
2023/04/24 02:16:08;;;;;;;1.75;0.85;;;;;;;-148.88;97.31;74830.78;5014993;28;20026;-85
2023/04/24 02:18:33;;;;;;;2.13;1.17;;;;;;;-148.88;97.31;74840.94;5013519;28;20033;-86
2023/04/24 02:20:58;;;;;;;2.67;1.40;;;;;;;-148.88;97.78;74840.94;5015623;28;20026;-88
2023/04/24 02:23:24;;;;;;;2.10;1.30;;;;;;;-148.88;98.99;74857.19;5015392;28;20409;-85
2023/04/24 02:25:49;;;;;;;2.42;1.20;;;;;;;-148.88;99.18;74863.28;5014658;28;20054;-82
2023/04/24 02:28:14;;;;;;;3.13;1.25;;;;;;;-148.88;100.00;74869.38;5014936;28;20077;-87
2023/04/24 02:30:39;;;;;;;1.90;1.10;;;;;;;-148.88;100.00;74867.34;5014178;28;20457;-84
2023/04/24 02:33:05;;;;;;;1.50;0.90;;;;;;;-148.88;100.00;74877.50;5014983;28;20026;-84
2023/04/24 02:35:30;;;;;;;2.78;1.02;;;;;;;-148.88;100.00;74891.72;5014764;28;20388;-83
2023/04/24 02:37:55;;;;;;;1.83;0.82;;;;;;;-148.88;100.00;74903.91;5029870;28;20026;-85
2023/04/24 02:40:20;;;;;;;1.77;1.00;;;;;;;-148.88;99.85;74901.88;5012607;28;20113;-83
2023/04/24 02:42:46;;;;;;;1.77;1.05;;;;;;;-148.88;100.00;74910.00;5013179;28;20026;-84
2023/04/24 02:45:11;;;;;;;2.80;1.70;;;;;;;-148.88;100.00;74932.34;5014192;28;20076;-84
2023/04/24 02:47:36;;;;;;;2.17;1.70;;;;;;;-148.88;99.81;74916.09;5012912;28;20038;-82
2023/04/24 02:50:02;;;;;;;2.35;1.55;;;;;;;-148.88;99.63;74918.13;5029785;28;20032;-83
2023/04/24 02:52:28;;;;;;;2.55;1.02;;;;;;;-148.88;99.86;74928.28;5012818;28;20030;-82
2023/04/24 02:54:54;;;;;;;5.28;1.90;;;;;;;-148.88;100.00;74926.25;5014432;28;20069;-83
2023/04/24 02:57:19;;;;;;;4.22;1.77;;;;;;;-148.88;100.00;74936.41;5014380;28;20046;-83
2023/04/24 02:59:44;;;;;;;4.18;2.20;;;;;;;-148.88;100.00;74932.34;5029311;28;20022;-83
2023/04/24 03:02:09;;;;;;;3.70;1.52;;;;;;;-148.88;100.00;74938.44;5013710;28;20056;-84
2023/04/24 03:04:35;;;;;;;4.35;2.30;;;;;;;-148.88;100.00;74938.44;5014041;28;20448;-82
2023/04/24 03:07:01;;;;;;;4.78;2.60;;;;;;;-148.88;100.00;74940.47;5029042;28;20026;-83
2023/04/24 03:09:26;;;;;;;2.58;1.50;;;;;;;-148.88;100.00;74944.53;5029289;28;20029;-83
2023/04/24 03:11:51;;;;;;;3.67;2.42;;;;;;;-148.88;100.00;74952.63;5014340;28;20065;-82
2023/04/24 03:14:17;;;;;;;2.70;1.98;;;;;;;-148.88;100.00;74944.53;5013272;28;20022;-83
2023/04/24 03:16:42;;;;;;;3.58;2.40;;;;;;;-148.88;100.00;74940.47;5012952;28;20105;-83
2023/04/24 03:19:07;;;;;;;3.45;2.10;;;;;;;-148.88;100.00;74936.41;5014175;28;20109;-83
2023/04/24 03:21:33;;;;;;;2.53;1.45;;;;;;;-148.88;99.16;74936.41;5013680;28;20033;-83
2023/04/24 03:23:58;;;;;;;3.03;1.90;;;;;;;-148.88;98.88;74934.38;5012879;28;20036;-84
2023/04/24 03:26:24;;;;;;;3.53;1.98;;;;;;;-148.88;98.16;74934.38;5013940;28;20381;-83
2023/04/24 03:28:50;;;;;;;3.08;1.67;;;;;;;-148.88;97.62;74936.41;5013652;28;20022;-82
2023/04/24 03:31:16;;;;;;;4.60;1.52;;;;;;;-148.88;97.30;74924.22;5012509;28;20508;-83
2023/04/24 03:33:41;;;;;;;2.60;1.50;;;;;;;-148.88;97.41;74928.28;5013871;28;20018;-84
2023/04/24 03:36:07;;;;;;;2.13;1.20;;;;;;;-148.88;96.83;74920.16;5014346;28;20076;-84
2023/04/24 03:38:32;;;;;;;2.95;1.40;;;;;;;-148.88;96.48;74920.16;5014801;28;20080;-85
2023/04/24 03:40:57;;;;;;;4.47;1.67;;;;;;;-148.88;96.81;74920.16;5015928;28;20026;-87
2023/04/24 03:43:23;;;;;;;3.35;1.90;;;;;;;-148.88;96.20;74924.22;5015717;28;20025;-85
2023/04/24 03:45:48;;;;;;;3.17;1.98;;;;;;;-148.88;97.46;74922.19;5014963;28;20036;-86
2023/04/24 03:48:13;;;;;;;5.07;1.50;;;;;;;-148.88;96.29;74924.22;5014263;28;20463;-86
2023/04/24 03:50:39;;;;;;;2.17;1.20;;;;;;;-148.88;96.63;74932.34;5014359;28;20029;-86
2023/04/24 03:53:04;;;;;;;4.32;2.50;;;;;;;-148.88;96.13;74936.41;5013639;28;20029;-86
2023/04/24 03:55:29;;;;;;;2.65;1.70;;;;;;;-148.88;96.75;74934.38;5013433;28;20357;-86
2023/04/24 03:57:55;;;;;;;2.80;1.50;;;;;;;-148.88;96.58;74936.41;5012679;28;20073;-87
2023/04/24 04:00:20;;;;;;;2.88;1.73;;;;;;;-148.88;96.58;74932.34;5029293;28;20041;-85
2023/04/24 04:02:46;;;;;;;2.70;1.45;;;;;;;-148.88;97.20;74948.56;5013245;28;20033;-84
2023/04/24 04:05:11;;;;;;;5.28;1.55;;;;;;;-148.88;96.81;74946.53;5028840;28;20380;-85
2023/04/24 04:07:36;;;;;;;3.55;1.95;;;;;;;-148.88;97.05;74952.63;5013760;28;20152;-85
2023/04/24 04:10:03;;;;;;;3.53;1.70;;;;;;;-148.88;98.01;74966.84;5015419;28;20025;-86
2023/04/24 04:12:28;;;;;;;6.00;1.45;;;;;;;-148.88;97.98;74970.91;5011914;28;20426;-85
2023/04/24 04:14:53;;;;;;;4.18;1.92;;;;;;;-148.88;97.80;74977.00;5011940;28;20013;-86
2023/04/24 04:17:19;;;;;;;3.25;2.60;;;;;;;-148.88;98.65;74995.28;5013023;28;20033;-85
2023/04/24 04:19:44;;;;;;;7.32;2.90;;;;;;;-148.88;99.03;75001.38;5011694;28;20552;-84
2023/04/24 04:22:09;;;;;;;3.97;2.50;;;;;;;-148.88;98.85;75005.44;5011566;28;20029;-86
2023/04/24 04:24:37;;;;;;;3.45;2.58;;;;;;;-148.88;99.93;75011.53;5011267;28;20029;-86
2023/04/24 04:27:04;;;;;;;4.10;2.90;;;;;;;-148.88;99.93;75009.50;5013197;28;20064;-86
2023/04/24 04:29:31;;;;;;;3.88;2.55;;;;;;;-148.88;99.40;75009.50;5012168;28;20135;-86
2023/04/24 04:31:56;;;;;;;2.55;1.40;;;;;;;-148.88;99.52;75005.44;5027969;28;20484;-86
2023/04/24 04:34:22;;;;;;;3.80;2.50;;;;;;;-148.88;100.00;75017.63;5011812;28;20022;-86
2023/04/24 04:36:48;;;;;;;5.25;2.88;;;;;;;-148.88;100.00;75013.56;5012763;28;20488;-86
2023/04/24 04:39:14;;;;;;;4.35;2.92;;;;;;;-148.88;100.00;75013.56;5027579;28;20052;-87
2023/04/24 04:41:40;;;;;;;4.88;2.17;;;;;;;-148.88;100.00;75017.63;5012465;28;20519;-87
2023/04/24 04:44:06;;;;;;;4.25;2.70;;;;;;;-148.88;100.00;75017.63;5013108;28;20054;-86
2023/04/24 04:46:34;;;;;;;4.57;2.28;;;;;;;-148.88;100.00;75017.63;5012863;28;20026;-86
2023/04/24 04:49:01;;;;;;;5.22;2.20;;;;;;;-148.88;100.00;75017.63;5012517;28;20100;-87
2023/04/24 04:51:26;;;;;;;4.30;2.58;;;;;;;-148.88;99.65;75021.69;5012807;28;20037;-87
2023/04/24 04:53:52;;;;;;;4.75;2.72;;;;;;;-148.88;100.00;75033.88;5012877;28;20026;-86
2023/04/24 04:56:17;;;;;;;4.90;3.00;;;;;;;-148.88;100.00;75021.69;5011314;28;20029;-85
2023/04/24 04:58:43;;;;;;;11.20;8.65;;;;;;;-148.88;100.00;75037.94;5012852;28;20018;-86
2023/04/24 05:01:08;;;;;;;15.35;8.55;;;;;;;-148.88;100.00;75066.38;5013185;28;20076;-84
2023/04/24 05:03:33;;;;;;;12.48;7.38;;;;;;;-148.88;100.00;75066.38;5014591;28;20461;-87
2023/04/24 05:05:58;;;;;;;15.40;7.88;;;;;;;-148.88;100.00;75054.19;5016572;28;20056;-86
2023/04/24 05:08:24;;;;;;;15.75;12.80;;;;;;;-148.88;100.00;75068.41;5016159;28;20055;-87
2023/04/24 05:10:49;;;;;;;14.45;7.32;;;;;;;-148.88;100.00;75050.13;5014966;28;20026;-86
2023/04/24 05:13:15;;;;;;;13.80;7.70;;;;;;;-148.88;100.00;75058.25;5016924;28;20488;-86
2023/04/24 05:15:40;;;;;;;12.55;7.78;;;;;;;-148.88;100.00;75070.44;5016180;28;20127;-86
2023/04/24 05:18:05;;;;;;;12.63;7.95;;;;;;;-148.88;100.00;75058.25;5016415;28;20101;-86
2023/04/24 05:20:31;;;;;;;16.60;12.35;;;;;;;-148.88;100.00;75058.25;5015995;28;20392;-87
2023/04/24 05:22:56;;;;;;;10.88;6.78;;;;;;;-148.88;100.00;75066.38;5015859;28;20026;-88
2023/04/24 05:25:21;;;;;;;13.98;11.68;;;;;;;-148.88;100.00;75070.44;5014242;28;20049;-87
2023/04/24 05:27:47;;;;;;;17.10;12.45;;;;;;;-148.88;100.00;75064.34;5014715;28;20193;-86
2023/04/24 05:30:12;;;;;;;10.65;6.90;;;;;;;-148.88;100.00;75054.19;5014845;28;20399;-86
2023/04/24 05:32:38;;;;;;;17.52;12.00;;;;;;;-148.88;100.00;75062.31;5014521;28;20506;-86
2023/04/24 05:35:04;;;;;;;15.20;7.32;;;;;;;-148.88;100.00;75054.19;5014603;28;20479;-86
2023/04/24 05:37:29;;;;;;;10.85;6.45;;;;;;;-148.88;100.00;75058.25;5014570;28;20068;-87
2023/04/24 05:39:54;;;;;;;16.15;12.02;;;;;;;-148.88;100.00;75052.16;5030841;28;20026;-87
2023/04/24 05:42:19;;;;;;;14.18;11.55;;;;;;;-148.88;100.00;75050.13;5014554;28;20404;-85
2023/04/24 05:44:45;;;;;;;13.23;6.35;;;;;;;-148.88;100.00;75058.25;5014407;28;20064;-86
2023/04/24 05:47:10;;;;;;;13.82;7.28;;;;;;;-148.88;100.00;75054.19;5014251;28;20076;-84
2023/04/24 05:49:35;;;;;;;13.95;11.05;;;;;;;-148.88;100.00;75046.06;5015820;28;20022;-87
2023/04/24 05:52:01;;;;;;;14.57;6.88;;;;;;;-148.88;100.00;75037.94;5014407;28;20026;-86
2023/04/24 05:54:27;;;;;;;12.60;7.07;;;;;;;-148.88;100.00;75042.00;5015882;28;20041;-84
2023/04/24 05:56:54;;;;;;;12.18;6.60;;;;;;;-148.88;100.00;75052.16;5014400;28;20022;-86
2023/04/24 05:59:19;;;;;;;12.65;7.10;;;;;;;-148.88;100.00;75037.94;5015735;28;20037;-88
2023/04/24 06:01:45;;;;;;;15.35;11.80;;;;;;;-148.88;100.00;75033.88;5014345;28;20017;-86
2023/04/24 06:04:13;;;;;;;14.45;7.18;;;;;;;-148.88;100.00;75025.75;5014173;28;20026;-88
2023/04/24 06:06:38;;;;;;;12.27;7.00;;;;;;;-148.88;100.00;75025.75;5030614;28;20037;-86
2023/04/24 06:09:03;;;;;;;17.25;7.95;;;;;;;-148.88;100.00;75021.69;5030224;28;20033;-88
2023/04/24 06:11:29;;;;;;;15.90;11.70;;;;;;;-148.88;100.00;75025.75;5015233;28;20022;-88
2023/04/24 06:13:54;;;;;;;13.77;7.47;;;;;;;-148.88;100.00;75021.69;5015068;28;20018;-88
2023/04/24 06:16:20;;;;;;;15.73;12.60;;;;;;;-148.88;100.00;75027.78;5014068;28;20105;-88
2023/04/24 06:18:46;;;;;;;16.13;12.82;;;;;;;-148.88;100.00;75025.75;5015176;28;20496;-87
2023/04/24 06:24:41;;;;;;;14.18;7.53;;;;;;;-148.88;100.00;75019.66;4987400;22;20067;-77
2023/04/24 06:27:07;;;;;;;16.33;12.73;;;;;;;-148.88;100.00;75021.69;5034861;28;20037;-77
2023/04/24 06:29:34;;;;;;;21.00;7.50;;;;;;;-148.88;100.00;75021.69;5033487;28;20032;-76
2023/04/24 06:31:59;;;;;;;13.32;8.10;;;;;;;-148.88;100.00;75005.44;5034450;28;20041;-76
2023/04/24 06:34:24;;;;;;;18.00;13.25;;;;;;;-148.88;100.00;75001.38;5034445;28;20022;-77
2023/04/24 06:36:56;;;;;;;15.32;8.75;;;;;;;-148.88;100.00;75013.56;5034591;28;20033;-76
2023/04/24 06:39:21;;;;;;;17.02;12.63;;;;;;;-148.88;100.00;75007.47;5034427;28;20433;-76
2023/04/24 06:41:47;;;;;;;15.07;7.10;;;;;;;-148.88;100.00;75015.59;5034338;28;20391;-76
2023/04/24 06:44:14;;;;;;;15.68;12.18;;;;;;;-148.88;100.00;75001.38;5032797;28;20515;-76
2023/04/24 06:46:40;;;;;;;13.05;7.68;;;;;;;-148.88;100.00;75013.56;5034251;28;20036;-77
2023/04/24 06:49:06;;;;;;;18.27;13.23;;;;;;;-148.88;100.00;75011.53;5034485;28;20029;-78
2023/04/24 06:51:33;;;;;;;15.68;12.45;;;;;;;-148.88;100.00;75013.56;5034827;28;20096;-77
2023/04/24 06:53:59;;;;;;;16.00;12.63;;;;;;;-148.88;100.00;75023.72;5034425;28;20048;-77
2023/04/24 06:56:25;;;;;;;14.55;8.23;;;;;;;-148.88;100.00;75019.66;5032822;28;20025;-77
2023/04/24 06:58:51;;;;;;;16.02;13.57;;;;;;;-148.88;100.00;75025.75;5034296;28;20128;-77
2023/04/24 07:01:16;;;;;;;19.50;13.90;;;;;;;-148.88;100.00;75033.88;5034354;28;20459;-77
2023/04/24 07:03:41;;;;;;;19.15;8.93;;;;;;;-148.88;100.00;75037.94;5032482;28;20021;-77
2023/04/24 07:06:07;;;;;;;16.48;8.77;;;;;;;-148.88;100.00;75037.94;5033992;28;20029;-77
2023/04/24 07:08:32;;;;;;;13.95;8.10;;;;;;;-148.88;100.00;75017.63;5033808;28;20021;-76
2023/04/24 07:10:58;;;;;;;15.18;8.75;;;;;;;-148.88;100.00;75017.63;5039331;28;20387;-81
2023/04/24 07:13:24;;;;;;;16.77;8.38;;;;;;;-148.88;100.00;75029.81;5041156;28;20159;-81
2023/04/24 07:15:56;;;;;;;16.63;13.77;;;;;;;-148.88;100.00;75029.81;5039733;28;20017;-80
2023/04/24 07:18:41;;;;;;;14.25;8.60;;;;;;;-148.88;100.00;75033.88;5038613;28;20079;-81
2023/04/24 07:21:07;;;;;;;14.57;7.95;;;;;;;-148.88;100.00;75046.06;5040309;28;20416;-81
2023/04/24 07:23:32;;;;;;;14.48;12.70;;;;;;;-148.88;100.00;75042.00;5040562;28;20066;-81
2023/04/24 07:25:58;;;;;;;16.90;13.70;;;;;;;-148.88;100.00;75046.06;5038172;28;20033;-81
2023/04/24 07:28:23;;;;;;;15.73;7.60;;;;;;;-148.88;100.00;75037.94;5039164;28;20031;-81
2023/04/24 07:30:48;;;;;;;13.15;7.43;;;;;;;-148.88;100.00;75031.84;5036581;28;20033;-80
2023/04/24 07:33:13;;;;;;;19.08;13.85;;;;;;;-148.88;100.00;75035.91;5033622;28;20496;-79
2023/04/24 07:35:39;;;;;;;15.35;8.98;;;;;;;-148.88;100.00;75037.94;5033770;28;20021;-80
2023/04/24 07:38:04;;;;;;;14.35;8.05;;;;;;;-148.88;100.00;75025.75;5041260;28;20387;-80
2023/04/24 07:40:30;;;;;;;16.13;12.70;;;;;;;-148.88;100.00;75019.66;5043237;28;20029;-80
2023/04/24 07:42:55;;;;;;;15.88;12.45;;;;;;;-148.88;100.00;75013.56;5040324;28;20032;-81
2023/04/24 07:45:20;;;;;;;15.55;12.25;;;;;;;-148.88;99.58;75019.66;5041647;28;20049;-81
2023/04/24 07:47:46;;;;;;;14.65;7.32;;;;;;;-148.88;99.75;75009.50;5039891;28;20049;-81
2023/04/24 07:50:12;;;;;;;13.63;11.82;;;;;;;-148.88;100.00;75001.38;5040982;28;20102;-80
2023/04/24 07:52:38;;;;;;;14.80;11.00;;;;;;;-148.88;98.38;75009.50;5041908;28;20031;-81
2023/04/24 07:55:03;;;;;;;12.57;10.95;;;;;;;-148.88;99.13;74997.31;5040723;28;20053;-81
2023/04/24 07:57:30;;;;;;;12.57;7.22;;;;;;;-148.88;98.93;74997.31;5043439;28;20105;-81
2023/04/24 07:59:55;;;;;;;14.45;11.57;;;;;;;-148.88;99.30;74995.28;5043559;28;20093;-81
2023/04/24 08:02:25;;;;;;;15.00;11.05;;;;;;;-148.88;99.54;75009.50;5044485;28;20049;-81
2023/04/24 08:04:51;;;;;;;11.30;5.57;;;;;;;-148.88;98.89;75023.72;5041393;28;20074;-81
2023/04/24 08:07:16;;;;;;;11.77;6.07;;;;;;;-148.88;99.39;75017.63;5037979;28;20100;-80
2023/04/24 08:09:42;;;;;;;11.75;8.57;;;;;;;-148.88;100.00;75025.75;5031865;28;20029;-79
2023/04/24 08:12:07;;;;;;;10.07;7.43;;;;;;;-148.88;100.00;75042.00;5032977;28;20067;-80
2023/04/24 08:14:32;;;;;;;7.88;4.80;;;;;;;-148.88;100.00;75062.31;5038742;28;20030;-80
2023/04/24 08:17:00;;;;;;;9.40;7.53;;;;;;;-148.88;100.00;75058.25;5040573;28;20061;-81
2023/04/24 08:19:25;;;;;;;8.50;6.70;;;;;;;-148.88;100.00;75058.25;5037428;28;20021;-80
2023/04/24 08:21:50;;;;;;;7.35;6.35;;;;;;;-148.88;99.63;75076.53;5037470;28;20030;-81
2023/04/24 08:24:15;;;;;;;8.20;5.05;;;;;;;-148.88;100.00;75066.38;5040788;28;20018;-80
2023/04/24 08:26:41;;;;;;;8.98;7.10;;;;;;;-148.88;100.00;75058.25;5040556;28;20039;-81
2023/04/24 08:29:06;;;;;;;7.35;4.20;;;;;;;-148.88;100.00;75052.16;5040680;28;20067;-80
2023/04/24 08:31:32;;;;;;;8.43;7.05;;;;;;;-148.88;100.00;75060.28;5039208;28;20049;-80
2023/04/24 08:33:57;;;;;;;8.23;4.53;;;;;;;-148.88;100.00;75066.38;5037154;28;20084;-81
2023/04/24 08:36:23;;;;;;;8.65;6.57;;;;;;;-148.88;100.00;75046.06;5040856;28;20029;-81
2023/04/24 08:38:48;;;;;;;7.38;6.10;;;;;;;-148.88;100.00;75058.25;5043294;28;20030;-81
2023/04/24 08:41:15;;;;;;;6.72;4.18;;;;;;;-148.88;99.13;75050.13;5046940;28;20033;-81
2023/04/24 08:43:41;;;;;;;8.13;6.75;;;;;;;-148.88;99.59;75033.88;5037792;28;20033;-79
2023/04/24 08:46:07;;;;;;;9.20;4.47;;;;;;;-148.88;99.42;75013.56;5035880;28;20021;-77
2023/04/24 08:48:32;;;;;;;6.47;4.22;;;;;;;-148.88;99.71;74993.25;5035152;28;20028;-80
2023/04/24 08:50:59;;;;;;;5.93;5.32;;;;;;;-148.88;97.54;74979.03;5046923;28;20033;-80
2023/04/24 08:53:25;;;;;;;5.32;3.50;;;;;;;-148.88;97.13;74966.84;5047637;28;20114;-81
2023/04/24 08:55:51;;;;;;;6.97;3.50;;;;;;;-148.88;95.72;74952.63;5046023;28;20036;-80
2023/04/24 08:58:17;;;;;;;5.60;4.97;;;;;;;-148.88;95.05;74932.34;5046795;28;20021;-81
2023/04/24 09:00:46;;;;;;;5.28;4.45;;;;;;;-148.88;93.33;74928.28;5047931;28;20022;-80
2023/04/24 09:03:15;;;;;;;4.93;4.43;;;;;;;-148.88;93.94;74940.47;5048790;28;20059;-80
2023/04/24 09:05:45;;;;;;;8.63;4.63;;;;;;;-148.88;93.16;74950.59;5045048;28;20029;-80
2023/04/24 09:08:13;;;;;;;5.70;4.60;;;;;;;-148.88;93.87;74985.13;5044392;28;20018;-81
2023/04/24 09:10:39;;;;;;;5.20;4.70;;;;;;;-148.88;95.65;74997.31;5046036;28;20497;-80
2023/04/24 09:13:04;;;;;;;5.30;4.80;;;;;;;-148.88;96.47;74993.25;5047650;28;20033;-81
2023/04/24 09:15:30;;;;;;;5.57;4.88;;;;;;;-148.88;95.76;75007.47;5048211;28;20030;-81
2023/04/24 09:17:56;;;;;;;5.47;3.33;;;;;;;-148.88;96.46;75017.63;5045864;28;20036;-79
2023/04/24 09:20:21;;;;;;;4.43;3.20;;;;;;;-148.88;96.31;75037.94;5035573;28;20079;-79
2023/04/24 09:22:47;;;;;;;4.95;4.40;;;;;;;-148.88;97.38;75054.19;5036372;28;20052;-79
2023/04/24 09:25:12;;;;;;;5.18;4.32;;;;;;;-148.88;98.07;75042.00;5034664;28;20022;-79
2023/04/24 09:27:43;;;;;;;5.10;3.50;;;;;;;-148.88;97.14;75048.09;5042349;28;20080;-79
2023/04/24 09:30:09;;;;;;;4.82;2.95;;;;;;;-148.88;98.46;75035.91;5043277;28;20106;-80
2023/04/24 09:32:34;;;;;;;4.47;2.97;;;;;;;-148.88;97.89;75037.94;5042774;28;20033;-81
2023/04/24 09:35:15;;;;;;;4.63;4.20;;;;;;;-148.88;98.22;75027.78;5041232;28;20048;-81
2023/04/24 09:37:46;;;;;;;4.78;3.00;;;;;;;-148.88;98.04;75017.63;5042340;28;20053;-81
2023/04/24 09:40:16;;;;;;;4.63;3.42;;;;;;;-148.88;98.40;75011.53;5043519;28;20483;-80
2023/04/24 09:42:53;;;;;;;5.97;4.20;;;;;;;-148.88;98.38;74997.31;5043259;28;20025;-80
2023/04/24 09:45:18;;;;;;;4.72;2.92;;;;;;;-148.88;98.72;74991.22;5046555;28;20091;-81
2023/04/24 09:47:43;;;;;;;3.75;2.30;;;;;;;-148.88;96.67;75001.38;5044616;28;20025;-81
2023/04/24 09:50:16;;;;;;;5.85;3.17;;;;;;;-148.88;95.06;74997.31;5044882;28;20358;-80
2023/04/24 09:53:01;;;;;;;3.35;2.22;;;;;;;-148.88;96.52;75017.63;5044537;28;20022;-81
2023/04/24 09:55:27;;;;;;;4.78;3.00;;;;;;;-148.88;95.25;75023.72;5042371;28;20549;-79
2023/04/24 09:57:56;;;;;;;3.78;2.70;;;;;;;-148.88;95.53;75037.94;5042685;28;20088;-80
2023/04/24 10:00:23;;;;;;;4.43;3.30;;;;;;;-148.88;96.11;75029.81;5042924;28;20036;-80
2023/04/24 10:02:51;;;;;;;4.38;2.90;;;;;;;-148.88;96.38;75044.03;5035302;28;20033;-80
2023/04/24 10:05:16;;;;;;;3.65;3.30;;;;;;;-148.88;97.77;75031.84;5042757;28;20018;-80
2023/04/24 10:07:43;;;;;;;4.28;3.60;;;;;;;-148.88;99.56;75021.69;5042900;28;20029;-80
2023/04/24 10:10:09;;;;;;;4.22;2.53;;;;;;;-148.88;99.49;75068.41;5042654;28;20033;-81
2023/04/24 10:12:34;;;;;;;4.28;3.15;;;;;;;-148.88;100.00;75060.28;5042393;28;20089;-80
2023/04/24 10:15:01;;;;;;;4.10;2.15;;;;;;;-148.88;100.00;75060.28;5041361;28;20049;-80
2023/04/24 10:17:28;;;;;;;3.60;2.50;;;;;;;-148.88;100.00;75066.38;5041669;28;20021;-80
2023/04/24 10:19:54;;;;;;;4.22;3.00;;;;;;;-148.88;100.00;75033.88;5040899;28;20129;-81
2023/04/24 10:22:21;;;;;;;4.75;4.35;;;;;;;-148.88;100.00;75025.75;5042772;28;20029;-80
2023/04/24 10:24:47;;;;;;;4.85;4.28;;;;;;;-148.88;100.00;74983.09;5040958;28;20479;-80
2023/04/24 10:27:15;;;;;;;4.80;4.35;;;;;;;-148.88;99.63;75017.63;5038196;28;20112;-81
2023/04/24 10:29:41;;;;;;;4.80;4.30;;;;;;;-148.88;99.11;75021.69;5044236;28;20021;-80
2023/04/24 10:32:07;;;;;;;5.82;3.30;;;;;;;-148.88;98.82;75021.69;5034223;28;20028;-79
2023/04/24 10:34:32;;;;;;;4.78;3.38;;;;;;;-148.88;100.00;75082.63;5033793;28;20018;-79
2023/04/24 10:36:58;;;;;;;5.95;5.40;;;;;;;-148.88;100.00;75102.91;5034944;28;20033;-79
2023/04/24 10:39:24;;;;;;;7.07;4.22;;;;;;;-148.88;100.00;75143.53;5035331;28;20025;-80
2023/04/24 10:41:49;;;;;;;6.13;5.53;;;;;;;-148.88;100.00;75119.16;5035783;28;20025;-79
2023/04/24 10:44:15;;;;;;;4.70;3.55;;;;;;;-148.88;100.00;75092.78;5036063;28;20065;-80
2023/04/24 10:46:53;;;;;;;5.95;5.32;;;;;;;-148.88;100.00;75098.84;5035669;28;20018;-80
2023/04/24 10:49:28;;;;;;;4.93;3.60;;;;;;;-148.88;100.00;75094.81;5037135;28;20025;-80
2023/04/24 10:51:59;;;;;;;5.70;5.20;;;;;;;-148.88;100.00;75078.56;5036483;28;20494;-80
2023/04/24 10:54:27;;;;;;;4.82;3.50;;;;;;;-148.88;100.00;75088.72;5036601;28;20025;-80
2023/04/24 10:57:13;;;;;;;5.35;4.10;;;;;;;-148.88;100.00;75086.69;5035679;28;20056;-81
2023/04/24 10:59:38;;;;;;;5.47;3.78;;;;;;;-148.88;100.00;75115.09;5036427;28;20033;-81
2023/04/24 11:02:08;;;;;;;6.30;3.60;;;;;;;-148.88;100.00;75115.09;5036455;28;20088;-81
2023/04/24 11:04:35;;;;;;;6.63;6.00;;;;;;;-148.88;100.00;75119.16;5037202;28;20025;-81
2023/04/24 11:07:00;;;;;;;5.28;3.97;;;;;;;-148.88;100.00;75155.72;5036340;28;20086;-79
2023/04/24 11:09:28;;;;;;;5.90;5.32;;;;;;;-148.88;100.00;75171.97;5036436;28;20025;-79